createdAt,value
2016-11-23T00:00:03.364Z,60.61
2016-11-23T00:01:03.393Z,60.89
2016-11-23T00:02:03.114Z,60.8
2016-11-23T00:03:03.435Z,61.09
2016-11-23T00:04:03.472Z,60.89
2016-11-23T00:05:03.509Z,60.71
2016-11-23T00:06:03.222Z,60.71
2016-11-23T00:07:03.249Z,60.8
2016-11-23T00:08:03.595Z,60.71
2016-11-23T00:09:03.316Z,60.89
2016-11-23T00:10:03.340Z,60.89
2016-11-23T00:11:03.377Z,60.71
2016-11-23T00:12:03.399Z,60.8
2016-11-23T00:13:03.422Z,60.8
2016-11-23T00:14:03.763Z,60.8
2016-11-23T00:15:03.484Z,60.51
2016-11-23T00:16:03.817Z,60.61
2016-11-23T00:17:03.841Z,60.71
2016-11-23T00:18:03.567Z,60.51
2016-11-23T00:19:03.907Z,60.71
2016-11-23T00:20:03.956Z,60.77
2016-11-23T00:21:03.653Z,60.51
2016-11-23T00:22:03.677Z,60.77
2016-11-23T00:23:04.010Z,60.61
2016-11-23T00:24:04.039Z,60.8
2016-11-23T00:25:04.068Z,60.61
2016-11-23T00:26:04.098Z,60.61
2016-11-23T00:27:04.121Z,60.68
2016-11-23T00:28:03.850Z,60.71
2016-11-23T00:29:03.880Z,60.8
2016-11-23T00:30:04.209Z,60.61
2016-11-23T00:31:04.242Z,60.71
2016-11-23T00:32:03.960Z,60.68
2016-11-23T00:33:04.295Z,60.31
2016-11-23T00:34:04.023Z,60.68
2016-11-23T00:35:04.352Z,60.96
2016-11-23T00:36:04.381Z,60.96
2016-11-23T00:37:04.101Z,60.86
2016-11-23T00:38:04.434Z,60.96
2016-11-23T00:39:04.157Z,60.96
2016-11-23T00:40:04.188Z,61.09
2016-11-23T00:41:04.217Z,60.77
2016-11-23T00:42:04.244Z,60.86
2016-11-23T00:43:04.279Z,61.16
2016-11-23T00:44:04.303Z,60.77
2016-11-23T00:45:04.338Z,61.16
2016-11-23T00:46:04.654Z,61.16
2016-11-23T00:47:04.385Z,60.77
2016-11-23T00:48:04.718Z,61.16
2016-11-23T00:49:04.767Z,60.86
2016-11-23T00:50:04.779Z,61.16
2016-11-23T00:51:04.801Z,60.77
2016-11-23T00:52:04.537Z,61.16
2016-11-23T00:53:04.865Z,61.16
2016-11-23T00:54:04.579Z,60.77
2016-11-23T00:55:04.607Z,60.86
2016-11-23T00:56:04.946Z,60.86
2016-11-23T00:57:04.673Z,61.25
2016-11-23T00:58:04.703Z,60.96
2016-11-23T00:59:05.031Z,60.77
2016-11-23T01:00:05.053Z,60.96
2016-11-23T01:01:04.780Z,61.06
2016-11-23T01:02:05.126Z,60.86
2016-11-23T01:03:04.841Z,61.06
2016-11-23T01:04:05.182Z,60.77
2016-11-23T01:05:05.216Z,60.86
2016-11-23T01:06:04.919Z,60.96
2016-11-23T01:07:05.253Z,60.86
2016-11-23T01:08:04.978Z,60.77
2016-11-23T01:09:05.306Z,60.77
2016-11-23T01:10:05.338Z,60.77
2016-11-23T01:11:05.372Z,60.96
2016-11-23T01:12:05.096Z,60.77
2016-11-23T01:13:05.433Z,60.96
2016-11-23T01:14:05.450Z,60.58
2016-11-23T01:15:05.483Z,60.77
2016-11-23T01:16:05.503Z,60.68
2016-11-23T01:17:05.536Z,60.86
2016-11-23T01:18:05.571Z,60.68
2016-11-23T01:19:05.597Z,60.77
2016-11-23T01:20:05.318Z,60.58
2016-11-23T01:21:05.647Z,60.58
2016-11-23T01:22:05.675Z,60.86
2016-11-23T01:23:05.397Z,60.77
2016-11-23T01:24:05.725Z,60.58
2016-11-23T01:25:05.786Z,60.86
2016-11-23T01:26:05.795Z,60.77
2016-11-23T01:27:05.816Z,60.58
2016-11-23T01:28:05.852Z,60.68
2016-11-23T01:29:05.877Z,60.77
2016-11-23T01:30:05.904Z,60.77
2016-11-23T01:31:05.922Z,60.58
2016-11-23T01:32:05.655Z,60.68
2016-11-23T01:33:05.684Z,60.48
2016-11-23T01:34:06.018Z,60.48
2016-11-23T01:35:05.735Z,60.68
2016-11-23T01:36:06.070Z,60.68
2016-11-23T01:37:06.099Z,60.68
2016-11-23T01:38:06.123Z,60.48
2016-11-23T01:39:06.152Z,60.58
2016-11-23T01:40:06.185Z,60.58
2016-11-23T01:41:06.207Z,60.77
2016-11-23T01:42:05.939Z,60.77
2016-11-23T01:43:05.959Z,60.77
2016-11-23T01:44:06.296Z,60.86
2016-11-23T01:45:06.019Z,60.86
2016-11-23T01:46:06.042Z,60.86
2016-11-23T01:47:06.075Z,60.55
2016-11-23T01:48:06.403Z,60.68
2016-11-23T01:49:06.128Z,60.77
2016-11-23T01:50:06.149Z,60.58
2016-11-23T01:51:06.516Z,60.77
2016-11-23T01:52:06.523Z,60.83
2016-11-23T01:53:06.252Z,60.77
2016-11-23T01:54:06.267Z,60.77
2016-11-23T01:55:06.300Z,60.45
2016-11-23T01:56:06.321Z,60.77
2016-11-23T01:57:06.669Z,60.86
2016-11-23T01:58:06.682Z,60.77
2016-11-23T01:59:06.711Z,60.77
2016-11-23T02:00:06.739Z,60.77
2016-11-23T02:01:06.769Z,60.86
2016-11-23T02:02:06.794Z,60.74
2016-11-23T02:03:06.818Z,60.74
2016-11-23T02:04:06.846Z,60.77
2016-11-23T02:05:06.575Z,60.74
2016-11-23T02:06:06.607Z,60.64
2016-11-23T02:07:06.940Z,60.83
2016-11-23T02:08:06.961Z,60.83
2016-11-23T02:09:06.693Z,60.74
2016-11-23T02:10:06.723Z,60.83
2016-11-23T02:11:07.059Z,60.64
2016-11-23T02:12:06.776Z,60.93
2016-11-23T02:13:07.101Z,60.93
2016-11-23T02:14:06.831Z,60.74
2016-11-23T02:15:07.158Z,60.93
2016-11-23T02:16:07.186Z,60.93
2016-11-23T02:17:07.219Z,60.83
2016-11-23T02:18:21.857Z,60.83
2016-11-23T02:19:07.274Z,60.35
2016-11-23T02:20:07.289Z,60.93
2016-11-23T02:21:07.019Z,60.26
2016-11-23T02:22:07.360Z,60.35
2016-11-23T02:23:07.080Z,60.26
2016-11-23T02:24:07.413Z,60.83
2016-11-23T02:25:07.438Z,60.64
2016-11-23T02:26:07.472Z,60.83
2016-11-23T02:27:07.495Z,60.74
2016-11-23T02:28:07.219Z,60.74
2016-11-23T02:29:07.552Z,60.83
2016-11-23T02:30:07.573Z,60.74
2016-11-23T02:31:07.610Z,60.74
2016-11-23T02:32:07.633Z,60.74
2016-11-23T02:33:07.351Z,60.64
2016-11-23T02:34:07.385Z,60.64
2016-11-23T02:35:07.719Z,60.64
2016-11-23T02:36:07.745Z,60.74
2016-11-23T02:37:07.767Z,60.74
2016-11-23T02:38:07.794Z,60.74
2016-11-23T02:39:07.832Z,60.55
2016-11-23T02:40:07.856Z,60.64
2016-11-23T02:41:07.877Z,60.45
2016-11-23T02:42:07.914Z,60.74
2016-11-23T02:43:07.930Z,60.64
2016-11-23T02:44:07.967Z,60.55
2016-11-23T02:45:07.988Z,60.64
2016-11-23T02:46:08.021Z,60.55
2016-11-23T02:47:08.052Z,60.45
2016-11-23T02:48:08.070Z,60.35
2016-11-23T02:49:07.799Z,60.55
2016-11-23T02:50:07.828Z,60.83
2016-11-23T02:51:07.856Z,60.64
2016-11-23T02:52:08.180Z,60.64
2016-11-23T02:53:08.217Z,60.55
2016-11-23T02:54:08.247Z,60.74
2016-11-23T02:55:08.271Z,60.64
2016-11-23T02:56:08.301Z,60.45
2016-11-23T02:57:08.025Z,60.64
2016-11-23T02:58:08.358Z,60.64
2016-11-23T02:59:08.078Z,60.83
2016-11-23T03:00:08.414Z,60.64
2016-11-23T03:01:08.143Z,60.55
2016-11-23T03:02:08.161Z,60.45
2016-11-23T03:03:08.193Z,60.83
2016-11-23T03:04:08.521Z,60.55
2016-11-23T03:05:08.546Z,60.64
2016-11-23T03:06:08.610Z,60.74
2016-11-23T03:07:08.595Z,60.64
2016-11-23T03:08:08.632Z,60.64
2016-11-23T03:09:08.665Z,60.64
2016-11-23T03:10:08.689Z,60.64
2016-11-23T03:11:08.714Z,60.64
2016-11-23T03:12:08.434Z,60.64
2016-11-23T03:13:08.776Z,60.64
2016-11-23T03:14:08.492Z,60.64
2016-11-23T03:15:08.828Z,60.64
2016-11-23T03:16:08.853Z,60.64
2016-11-23T03:17:08.582Z,60.64
2016-11-23T03:18:08.599Z,60.45
2016-11-23T03:19:08.639Z,60.74
2016-11-23T03:20:08.960Z,60.74
2016-11-23T03:21:08.993Z,60.64
2016-11-23T03:22:08.718Z,60.55
2016-11-23T03:23:09.053Z,60.83
2016-11-23T03:24:09.076Z,60.93
2016-11-23T03:25:08.796Z,60.74
2016-11-23T03:26:09.137Z,60.74
2016-11-23T03:27:09.162Z,60.83
2016-11-23T03:28:09.191Z,60.45
2016-11-23T03:29:08.908Z,60.74
2016-11-23T03:30:09.236Z,60.83
2016-11-23T03:31:08.969Z,60.35
2016-11-23T03:32:08.997Z,61.03
2016-11-23T03:33:09.325Z,60.74
2016-11-23T03:34:09.059Z,60.64
2016-11-23T03:35:09.075Z,61.03
2016-11-23T03:36:09.099Z,60.55
2016-11-23T03:37:09.141Z,60.74
2016-11-23T03:38:09.465Z,60.83
2016-11-23T03:39:09.493Z,60.35
2016-11-23T03:40:09.518Z,60.74
2016-11-23T03:41:09.551Z,60.64
2016-11-23T03:42:09.580Z,60.83
2016-11-23T03:43:09.592Z,60.93
2016-11-23T03:44:09.629Z,60.55
2016-11-23T03:45:09.661Z,60.55
2016-11-23T03:46:09.716Z,61.03
2016-11-23T03:47:09.740Z,60.74
2016-11-23T03:48:09.740Z,60.93
2016-11-23T03:49:09.465Z,61.03
2016-11-23T03:50:09.797Z,61.03
2016-11-23T03:51:09.822Z,61.13
2016-11-23T03:52:09.850Z,60.83
2016-11-23T03:53:09.880Z,61.03
2016-11-23T03:54:09.612Z,60.93
2016-11-23T03:55:09.929Z,60.83
2016-11-23T03:56:09.961Z,61.22
2016-11-23T03:57:09.990Z,61.03
2016-11-23T03:58:10.022Z,60.93
2016-11-23T03:59:09.745Z,60.8
2016-11-23T04:00:10.080Z,61.13
2016-11-23T04:01:10.108Z,60.74
2016-11-23T04:02:09.822Z,60.83
2016-11-23T04:03:22.894Z,60.74
2016-11-23T04:04:10.183Z,60.83
2016-11-23T04:05:10.208Z,60.8
2016-11-23T04:06:10.236Z,60.74
2016-11-23T04:07:10.273Z,60.64
2016-11-23T04:08:10.290Z,60.16
2016-11-23T04:09:10.017Z,60.74
2016-11-23T04:10:10.035Z,60.71
2016-11-23T04:11:10.072Z,60.71
2016-11-23T04:12:10.096Z,60.74
2016-11-23T04:13:10.436Z,60.83
2016-11-23T04:14:10.154Z,60.83
2016-11-23T04:15:10.488Z,60.83
2016-11-23T04:16:10.212Z,60.83
2016-11-23T04:17:10.548Z,60.83
2016-11-23T04:18:10.269Z,60.83
2016-11-23T04:19:10.297Z,60.83
2016-11-23T04:20:10.326Z,60.74
2016-11-23T04:21:10.351Z,60.74
2016-11-23T04:22:10.380Z,60.32
2016-11-23T04:23:10.401Z,60.52
2016-11-23T04:24:10.732Z,60.32
2016-11-23T04:25:10.766Z,60.23
2016-11-23T04:26:10.491Z,60.13
2016-11-23T04:27:10.524Z,60.52
2016-11-23T04:28:10.844Z,60.42
2016-11-23T04:29:10.568Z,60.32
2016-11-23T04:30:10.589Z,60.32
2016-11-23T04:31:10.622Z,60.61
2016-11-23T04:32:10.655Z,60.42
2016-11-23T04:33:10.684Z,60.32
2016-11-23T04:34:11.014Z,60.35
2016-11-23T04:35:10.733Z,60.71
2016-11-23T04:36:11.062Z,60.61
2016-11-23T04:37:10.795Z,60.23
2016-11-23T04:38:10.815Z,60.52
2016-11-23T04:39:10.845Z,60.42
2016-11-23T04:40:11.173Z,60.42
2016-11-23T04:41:11.209Z,60.32
2016-11-23T04:42:11.239Z,60.42
2016-11-23T04:43:10.951Z,60.32
2016-11-23T04:44:11.288Z,60.32
2016-11-23T04:45:11.012Z,60.42
2016-11-23T04:46:11.034Z,60.52
2016-11-23T04:47:11.369Z,60.13
2016-11-23T04:48:11.399Z,60.32
2016-11-23T04:49:11.127Z,60.61
2016-11-23T04:50:11.144Z,60.61
2016-11-23T04:51:11.181Z,60.32
2016-11-23T04:52:11.509Z,60.61
2016-11-23T04:53:11.539Z,60.42
2016-11-23T04:54:11.259Z,60.42
2016-11-23T04:55:11.340Z,59.94
2016-11-23T04:56:11.320Z,59.94
2016-11-23T04:57:11.341Z,59.75
2016-11-23T04:58:11.682Z,59.94
2016-11-23T04:59:11.711Z,60.03
2016-11-23T05:00:11.431Z,60.03
2016-11-23T05:01:11.452Z,60.03
2016-11-23T05:02:11.476Z,59.84
2016-11-23T05:03:11.811Z,59.94
2016-11-23T05:04:11.838Z,60.13
2016-11-23T05:05:11.872Z,59.94
2016-11-23T05:06:11.597Z,59.94
2016-11-23T05:07:11.625Z,59.94
2016-11-23T05:08:11.949Z,60.03
2016-11-23T05:09:11.677Z,60.13
2016-11-23T05:10:12.006Z,60.13
2016-11-23T05:11:12.035Z,59.94
2016-11-23T05:12:11.756Z,59.94
2016-11-23T05:13:12.121Z,59.94
2016-11-23T05:14:11.818Z,60.13
2016-11-23T05:15:12.138Z,60.03
2016-11-23T05:16:12.185Z,60.03
2016-11-23T05:17:11.895Z,60.13
2016-11-23T05:18:11.954Z,60.23
2016-11-23T05:19:11.953Z,60.03
2016-11-23T05:20:12.286Z,60.23
2016-11-23T05:21:12.315Z,60.13
2016-11-23T05:22:12.027Z,59.94
2016-11-23T05:23:12.364Z,60.03
2016-11-23T05:24:12.401Z,60.13
2016-11-23T05:25:12.113Z,60.13
2016-11-23T05:26:12.454Z,60.03
2016-11-23T05:27:12.171Z,60.13
2016-11-23T05:28:12.195Z,60.32
2016-11-23T05:29:12.225Z,60.23
2016-11-23T05:30:12.563Z,60.03
2016-11-23T05:31:12.582Z,59.84
2016-11-23T05:32:12.314Z,60.13
2016-11-23T05:33:12.639Z,59.94
2016-11-23T05:34:12.368Z,60.03
2016-11-23T05:35:12.397Z,60.03
2016-11-23T05:36:12.725Z,59.65
2016-11-23T05:37:12.454Z,59.75
2016-11-23T05:38:12.787Z,59.97
2016-11-23T05:39:12.808Z,59.87
2016-11-23T05:40:12.828Z,59.65
2016-11-23T05:41:12.893Z,59.84
2016-11-23T05:42:12.588Z,59.97
2016-11-23T05:43:12.618Z,60.06
2016-11-23T05:44:12.938Z,59.87
2016-11-23T05:45:12.964Z,59.3
2016-11-23T05:46:12.700Z,59.39
2016-11-23T05:47:13.029Z,59.48
2016-11-23T05:48:13.049Z,59.39
2016-11-23T05:49:13.090Z,59.58
2016-11-23T05:50:12.807Z,59.58
2016-11-23T05:51:13.139Z,59.68
2016-11-23T05:52:12.864Z,59.68
2016-11-23T05:53:13.193Z,59.87
2016-11-23T05:54:13.228Z,59.48
2016-11-23T05:55:12.948Z,59.48
2016-11-23T05:56:13.286Z,59.48
2016-11-23T05:57:13.000Z,59.2
2016-11-23T05:58:13.340Z,59
2016-11-23T05:59:13.357Z,59.2
2016-11-23T06:00:13.114Z,59
2016-11-23T06:01:13.413Z,58.81
2016-11-23T06:02:13.438Z,58.81
2016-11-23T06:03:13.463Z,59
2016-11-23T06:04:13.499Z,58.52
2016-11-23T06:05:13.225Z,58.36
2016-11-23T06:06:13.554Z,58.36
2016-11-23T06:07:13.586Z,58.75
2016-11-23T06:08:13.310Z,58.84
2016-11-23T06:09:13.639Z,58.55
2016-11-23T06:10:13.660Z,58.94
2016-11-23T06:11:13.384Z,58.94
2016-11-23T06:12:13.725Z,58.75
2016-11-23T06:13:13.442Z,59.03
2016-11-23T06:14:13.772Z,59.03
2016-11-23T06:15:13.807Z,58.84
2016-11-23T06:16:13.523Z,58.65
2016-11-23T06:17:13.560Z,59.03
2016-11-23T06:18:13.585Z,58.36
2016-11-23T06:19:13.917Z,58.26
2016-11-23T06:20:13.938Z,58.17
2016-11-23T06:21:13.970Z,58.36
2016-11-23T06:22:14.004Z,58.36
2016-11-23T06:23:14.020Z,58.17
2016-11-23T06:24:13.749Z,58.36
2016-11-23T06:25:13.781Z,58.36
2016-11-23T06:26:14.118Z,58.26
2016-11-23T06:27:14.138Z,58.26
2016-11-23T06:28:13.883Z,58.07
2016-11-23T06:29:13.891Z,58.26
2016-11-23T06:30:14.218Z,58.07
2016-11-23T06:31:14.267Z,57.71
2016-11-23T06:32:14.273Z,57.97
2016-11-23T06:33:14.303Z,57.97
2016-11-23T06:34:14.330Z,58.19
2016-11-23T06:35:14.059Z,58.29
2016-11-23T06:36:14.388Z,58
2016-11-23T06:37:14.413Z,58.26
2016-11-23T06:38:14.147Z,58.1
2016-11-23T06:39:14.470Z,58.1
2016-11-23T06:40:14.496Z,58.19
2016-11-23T06:41:14.225Z,58.1
2016-11-23T06:42:14.249Z,57.9
2016-11-23T06:43:14.286Z,57.71
2016-11-23T06:44:14.618Z,58
2016-11-23T06:45:14.635Z,57.52
2016-11-23T06:46:14.368Z,57.71
2016-11-23T06:47:14.393Z,57.71
2016-11-23T06:48:14.730Z,57.42
2016-11-23T06:49:14.750Z,57.52
2016-11-23T06:50:14.791Z,57.52
2016-11-23T06:51:14.815Z,57.52
2016-11-23T06:52:14.841Z,57.62
2016-11-23T06:53:14.870Z,57.32
2016-11-23T06:54:14.594Z,57.62
2016-11-23T06:55:14.926Z,57.71
2016-11-23T06:56:14.951Z,57.62
2016-11-23T06:57:14.981Z,57.52
2016-11-23T06:58:14.704Z,57.71
2016-11-23T06:59:15.035Z,57.62
2016-11-23T07:00:15.058Z,57.62
2016-11-23T07:01:15.087Z,57.71
2016-11-23T07:02:14.820Z,57.42
2016-11-23T07:03:14.852Z,57.71
2016-11-23T07:04:15.176Z,57.62
2016-11-23T07:05:14.905Z,57.52
2016-11-23T07:06:15.223Z,58
2016-11-23T07:07:14.951Z,57.81
2016-11-23T07:08:14.984Z,57.62
2016-11-23T07:09:15.316Z,58
2016-11-23T07:10:15.046Z,57.9
2016-11-23T07:11:15.370Z,57.71
2016-11-23T07:12:15.098Z,57.62
2016-11-23T07:13:15.445Z,57.42
2016-11-23T07:14:15.456Z,57.71
2016-11-23T07:15:15.481Z,57.23
2016-11-23T07:16:15.513Z,57.23
2016-11-23T07:17:15.551Z,56.94
2016-11-23T07:18:15.574Z,57.14
2016-11-23T07:19:15.299Z,57.04
2016-11-23T07:20:15.632Z,56.84
2016-11-23T07:21:15.660Z,57.14
2016-11-23T07:22:15.685Z,57.23
2016-11-23T07:23:15.714Z,57.04
2016-11-23T07:24:15.742Z,57.04
2016-11-23T07:25:15.764Z,57.23
2016-11-23T07:26:15.805Z,57.42
2016-11-23T07:27:15.822Z,57.42
2016-11-23T07:28:15.857Z,57.23
2016-11-23T07:29:15.879Z,57.14
2016-11-23T07:30:15.907Z,57.04
2016-11-23T07:31:15.931Z,56.94
2016-11-23T07:32:15.661Z,56.94
2016-11-23T07:33:15.689Z,56.84
2016-11-23T07:34:15.717Z,56.87
2016-11-23T07:35:15.742Z,57.32
2016-11-23T07:36:15.772Z,57.42
2016-11-23T07:37:15.803Z,57.23
2016-11-23T07:38:16.133Z,56.94
2016-11-23T07:39:16.169Z,57.42
2016-11-23T07:40:15.890Z,56.36
2016-11-23T07:41:15.919Z,55.4
2016-11-23T07:42:16.247Z,55.68
2016-11-23T07:43:15.972Z,52.31
2016-11-23T07:44:16.000Z,52.89
2016-11-23T07:45:16.337Z,54.33
2016-11-23T07:46:16.370Z,55.2
2016-11-23T07:47:16.390Z,55.49
2016-11-23T07:48:16.422Z,55.49
2016-11-23T07:49:16.144Z,55.49
2016-11-23T07:50:16.485Z,55.49
2016-11-23T07:51:16.502Z,55.4
2016-11-23T07:52:16.557Z,54.62
2016-11-23T07:53:16.566Z,56.74
2016-11-23T07:54:16.587Z,54.33
2016-11-23T07:55:16.628Z,54.62
2016-11-23T07:56:16.640Z,53.75
2016-11-23T07:57:16.678Z,53.85
2016-11-23T07:58:16.698Z,54.53
2016-11-23T07:59:16.726Z,54.62
2016-11-23T08:00:16.770Z,54.72
2016-11-23T08:01:16.796Z,54.53
2016-11-23T08:02:16.512Z,54.53
2016-11-23T08:03:16.533Z,54.33
2016-11-23T08:04:16.869Z,55.01
2016-11-23T08:05:16.899Z,55.2
2016-11-23T08:06:16.619Z,54.72
2016-11-23T08:07:16.649Z,54.72
2016-11-23T08:08:16.972Z,54.53
2016-11-23T08:09:17.009Z,54.6
2016-11-23T08:10:16.735Z,54.53
2016-11-23T08:11:17.067Z,54.43
2016-11-23T08:12:17.079Z,54.33
2016-11-23T08:13:17.116Z,54.79
2016-11-23T08:14:16.845Z,54.88
2016-11-23T08:15:17.173Z,55.1
2016-11-23T08:16:16.893Z,54.91
2016-11-23T08:17:16.918Z,55.49
2016-11-23T08:18:17.254Z,55.18
2016-11-23T08:19:16.983Z,55.46
2016-11-23T08:20:17.308Z,55.56
2016-11-23T08:21:17.038Z,55.56
2016-11-23T08:22:17.075Z,54.69
2016-11-23T08:23:17.400Z,54.31
2016-11-23T08:24:17.719Z,54.88
2016-11-23T08:25:17.457Z,54.88
2016-11-23T08:26:17.482Z,55.18
2016-11-23T08:27:17.506Z,54.91
2016-11-23T08:28:17.535Z,54.6
2016-11-23T08:29:17.556Z,54.98
2016-11-23T08:30:17.589Z,55.18
2016-11-23T08:31:17.306Z,54.79
2016-11-23T08:32:17.342Z,55.08
2016-11-23T08:33:17.680Z,55.27
2016-11-23T08:34:17.699Z,54.79
2016-11-23T08:35:17.424Z,54.88
2016-11-23T08:36:17.753Z,55.27
2016-11-23T08:37:17.774Z,55.36
2016-11-23T08:38:17.506Z,54.88
2016-11-23T08:39:17.844Z,54.69
2016-11-23T08:40:17.561Z,55.46
2016-11-23T08:41:17.591Z,54.79
2016-11-23T08:42:17.926Z,55.3
2016-11-23T08:43:17.959Z,54.88
2016-11-23T08:44:17.984Z,55.08
2016-11-23T08:45:18.000Z,55.68
2016-11-23T08:46:18.029Z,55.46
2016-11-23T08:47:18.058Z,54.62
2016-11-23T08:48:17.792Z,55.3
2016-11-23T08:49:18.124Z,55.2
2016-11-23T08:50:17.832Z,55.36
2016-11-23T08:51:18.176Z,55.1
2016-11-23T08:52:17.898Z,55.01
2016-11-23T08:53:17.931Z,55.49
2016-11-23T08:54:18.255Z,55.59
2016-11-23T08:55:17.988Z,55.4
2016-11-23T08:56:18.013Z,55.49
2016-11-23T08:57:18.345Z,54.62
2016-11-23T08:58:18.070Z,54.62
2016-11-23T08:59:18.091Z,55.1
2016-11-23T09:00:18.428Z,54.62
2016-11-23T09:01:18.148Z,54.91
2016-11-23T09:02:18.482Z,54.53
2016-11-23T09:03:18.206Z,54.91
2016-11-23T09:04:18.531Z,54.24
2016-11-23T09:05:18.255Z,54.14
2016-11-23T09:06:18.592Z,54.24
2016-11-23T09:07:18.625Z,54.24
2016-11-23T09:08:18.650Z,54.24
2016-11-23T09:09:18.378Z,54.62
2016-11-23T09:10:18.712Z,54.43
2016-11-23T09:11:18.723Z,54.62
2016-11-23T09:12:18.761Z,53.37
2016-11-23T09:13:18.486Z,54.24
2016-11-23T09:14:18.514Z,54.53
2016-11-23T09:15:18.843Z,53.66
2016-11-23T09:16:18.876Z,53.95
2016-11-23T09:17:18.913Z,54.05
2016-11-23T09:18:18.633Z,54.24
2016-11-23T09:19:18.658Z,54.24
2016-11-23T09:20:18.982Z,53.95
2016-11-23T09:21:19.020Z,54.24
2016-11-23T09:22:18.772Z,54.43
2016-11-23T09:23:18.769Z,54.43
2016-11-23T09:24:19.102Z,54.33
2016-11-23T09:25:19.134Z,54.62
2016-11-23T09:26:19.163Z,53.66
2016-11-23T09:27:19.188Z,54.43
2016-11-23T09:28:19.217Z,54.33
2016-11-23T09:29:19.237Z,53.85
2016-11-23T09:30:19.266Z,53.75
2016-11-23T09:31:19.299Z,54.33
2016-11-23T09:32:19.023Z,53.95
2016-11-23T09:33:19.357Z,54.53
2016-11-23T09:34:19.377Z,54.33
2016-11-23T09:35:19.410Z,54.24
2016-11-23T09:36:19.449Z,54.43
2016-11-23T09:37:19.460Z,54.24
2016-11-23T09:38:19.489Z,54.62
2016-11-23T09:39:19.225Z,54.24
2016-11-23T09:40:19.554Z,54.24
2016-11-23T09:41:19.283Z,54.53
2016-11-23T09:42:19.604Z,53.85
2016-11-23T09:43:19.333Z,54.43
2016-11-23T09:44:19.357Z,54.53
2016-11-23T09:45:19.690Z,54.21
2016-11-23T09:46:19.719Z,54.21
2016-11-23T09:47:19.439Z,54.33
2016-11-23T09:48:19.785Z,54.21
2016-11-23T09:49:19.805Z,53.95
2016-11-23T09:50:19.837Z,54.91
2016-11-23T09:51:19.854Z,54.05
2016-11-23T09:52:19.883Z,54.14
2016-11-23T09:53:19.913Z,54.43
2016-11-23T09:54:19.945Z,54.53
2016-11-23T09:55:19.980Z,54.33
2016-11-23T09:56:19.698Z,54.24
2016-11-23T09:57:20.028Z,54.33
2016-11-23T09:58:20.061Z,54.53
2016-11-23T09:59:20.088Z,53.95
2016-11-23T10:00:20.106Z,53.56
2016-11-23T10:01:20.150Z,53.85
2016-11-23T10:02:19.863Z,54.24
2016-11-23T10:03:20.196Z,54.33
2016-11-23T10:04:19.925Z,54.33
2016-11-23T10:05:19.949Z,54.33
2016-11-23T10:06:20.279Z,54.33
2016-11-23T10:07:20.303Z,54.05
2016-11-23T10:08:20.034Z,53.95
2016-11-23T10:09:20.069Z,54.05
2016-11-23T10:10:20.094Z,53.85
2016-11-23T10:11:20.422Z,54.24
2016-11-23T10:12:20.152Z,53.75
2016-11-23T10:13:20.478Z,53.85
2016-11-23T10:14:20.507Z,53.95
2016-11-23T10:15:20.232Z,53.85
2016-11-23T10:16:20.267Z,53.75
2016-11-23T10:17:20.615Z,53.47
2016-11-23T10:18:20.318Z,53.75
2016-11-23T10:19:20.648Z,53.56
2016-11-23T10:20:20.377Z,53.56
2016-11-23T10:21:20.414Z,53.56
2016-11-23T10:22:20.730Z,53.47
2016-11-23T10:23:20.465Z,53.56
2016-11-23T10:24:20.496Z,53.56
2016-11-23T10:25:20.517Z,53.47
2016-11-23T10:26:20.849Z,53.56
2016-11-23T10:27:20.879Z,53.56
2016-11-23T10:28:20.914Z,53.56
2016-11-23T10:29:20.928Z,53.66
2016-11-23T10:30:20.661Z,53.95
2016-11-23T10:31:20.990Z,53.08
2016-11-23T10:32:21.027Z,53.08
2016-11-23T10:33:20.744Z,53.17
2016-11-23T10:34:21.076Z,53.27
2016-11-23T10:35:21.105Z,53.17
2016-11-23T10:36:21.131Z,53.08
2016-11-23T10:37:20.859Z,53.08
2016-11-23T10:38:21.187Z,52.79
2016-11-23T10:39:21.216Z,53.47
2016-11-23T10:40:21.249Z,52.89
2016-11-23T10:41:20.971Z,52.79
2016-11-23T10:42:21.002Z,52.89
2016-11-23T10:43:21.335Z,53.08
2016-11-23T10:44:21.364Z,53.17
2016-11-23T10:45:21.381Z,53.17
2016-11-23T10:46:21.417Z,52.79
2016-11-23T10:47:21.146Z,53.08
2016-11-23T10:48:21.488Z,51.73
2016-11-23T10:49:21.500Z,51.44
2016-11-23T10:50:21.533Z,52.31
2016-11-23T10:51:21.564Z,52.69
2016-11-23T10:52:21.590Z,53.08
2016-11-23T10:53:21.614Z,52.79
2016-11-23T10:54:21.644Z,53.17
2016-11-23T10:55:21.372Z,53.47
2016-11-23T10:56:21.397Z,52.79
2016-11-23T10:57:21.722Z,52.59
2016-11-23T10:58:21.747Z,52.69
2016-11-23T10:59:21.787Z,52.5
2016-11-23T11:00:21.817Z,52.69
2016-11-23T11:01:21.838Z,53.17
2016-11-23T11:02:21.570Z,52.69
2016-11-23T11:03:21.899Z,52.69
2016-11-23T11:04:21.926Z,52.5
2016-11-23T11:05:21.963Z,52.4
2016-11-23T11:06:21.984Z,52.14
2016-11-23T11:07:22.013Z,52.89
2016-11-23T11:08:22.046Z,52.98
2016-11-23T11:09:21.759Z,52.79
2016-11-23T11:10:22.096Z,52.72
2016-11-23T11:11:22.120Z,52.69
2016-11-23T11:12:22.161Z,52.69
2016-11-23T11:13:21.878Z,53.08
2016-11-23T11:14:22.215Z,52.91
2016-11-23T11:15:22.244Z,52.69
2016-11-23T11:16:22.276Z,52.89
2016-11-23T11:17:22.298Z,52.59
2016-11-23T11:18:22.330Z,52.5
2016-11-23T11:19:22.362Z,53.08
2016-11-23T11:20:22.379Z,52.59
2016-11-23T11:21:22.105Z,53.08
2016-11-23T11:22:22.437Z,53.08
2016-11-23T11:23:22.182Z,52.69
2016-11-23T11:24:22.490Z,52.5
2016-11-23T11:25:22.222Z,52.31
2016-11-23T11:26:22.553Z,52.23
2016-11-23T11:27:22.573Z,52.31
2016-11-23T11:28:22.613Z,52.33
2016-11-23T11:29:22.642Z,52.23
2016-11-23T11:30:22.359Z,52.14
2016-11-23T11:31:22.699Z,52.43
2016-11-23T11:32:22.724Z,52.14
2016-11-23T11:33:22.457Z,52.33
2016-11-23T11:34:22.773Z,52.53
2016-11-23T11:35:22.499Z,52.43
2016-11-23T11:36:22.533Z,52.14
2016-11-23T11:37:22.871Z,52.23
2016-11-23T11:38:22.593Z,52.23
2016-11-23T11:39:22.642Z,52.23
2016-11-23T11:40:22.952Z,52.43
2016-11-23T11:41:22.674Z,52.43
2016-11-23T11:42:23.004Z,52.23
2016-11-23T11:43:23.045Z,52.33
2016-11-23T11:44:22.758Z,52.14
2016-11-23T11:45:23.106Z,52.43
2016-11-23T11:46:22.814Z,52.04
2016-11-23T11:47:23.167Z,51.75
2016-11-23T11:48:23.200Z,51.85
2016-11-23T11:49:22.912Z,51.85
2016-11-23T11:50:22.933Z,51.46
2016-11-23T11:51:23.253Z,51.85
2016-11-23T11:52:23.300Z,51.85
2016-11-23T11:53:23.320Z,51.85
2016-11-23T11:54:23.044Z,51.75
2016-11-23T11:55:23.381Z,51.75
2016-11-23T11:56:23.414Z,51.56
2016-11-23T11:57:23.447Z,51.95
2016-11-23T11:58:23.163Z,51.75
2016-11-23T11:59:23.196Z,51.75
2016-11-23T12:00:23.525Z,51.75
2016-11-23T12:01:23.262Z,51.46
2016-11-23T12:02:23.575Z,50.98
2016-11-23T12:03:23.615Z,50.59
2016-11-23T12:04:23.632Z,50.98
2016-11-23T12:05:23.665Z,51.17
2016-11-23T12:06:23.701Z,51.27
2016-11-23T12:07:23.723Z,51.46
2016-11-23T12:08:23.747Z,51.17
2016-11-23T12:09:23.776Z,51.27
2016-11-23T12:10:23.813Z,51.27
2016-11-23T12:11:23.837Z,51.56
2016-11-23T12:12:23.566Z,51.46
2016-11-23T12:13:23.889Z,51.27
2016-11-23T12:14:23.924Z,50.31
2016-11-23T12:15:23.648Z,50.98
2016-11-23T12:16:23.977Z,50.59
2016-11-23T12:17:24.013Z,51.07
2016-11-23T12:18:24.034Z,51.27
2016-11-23T12:19:24.071Z,51.17
2016-11-23T12:20:24.087Z,51.46
2016-11-23T12:21:24.116Z,51.17
2016-11-23T12:22:24.153Z,51.17
2016-11-23T12:23:24.185Z,51.37
2016-11-23T12:24:24.206Z,51.27
2016-11-23T12:25:23.938Z,51.46
2016-11-23T12:26:24.264Z,51.46
2016-11-23T12:27:24.001Z,51.27
2016-11-23T12:28:24.013Z,51.17
2016-11-23T12:29:24.049Z,51.25
2016-11-23T12:30:24.387Z,51.17
2016-11-23T12:31:24.423Z,51.65
2016-11-23T12:32:24.432Z,51.27
2016-11-23T12:33:24.469Z,51.07
2016-11-23T12:34:24.501Z,51.07
2016-11-23T12:35:24.223Z,51.27
2016-11-23T12:36:24.551Z,51.17
2016-11-23T12:37:24.576Z,51.17
2016-11-23T12:38:24.605Z,51.27
2016-11-23T12:39:24.633Z,51.27
2016-11-23T12:40:24.362Z,51.07
2016-11-23T12:41:24.695Z,51.37
2016-11-23T12:42:24.723Z,51.46
2016-11-23T12:43:24.764Z,51.27
2016-11-23T12:44:24.777Z,51.46
2016-11-23T12:45:24.522Z,51.37
2016-11-23T12:46:24.842Z,51.17
2016-11-23T12:47:24.566Z,51.27
2016-11-23T12:48:24.583Z,51.17
2016-11-23T12:49:24.917Z,51.17
2016-11-23T12:50:24.653Z,51.27
2016-11-23T12:51:24.676Z,51.17
2016-11-23T12:52:25.009Z,51.17
2016-11-23T12:53:24.739Z,51.37
2016-11-23T12:54:25.068Z,51.17